Time;durP1;ratioP1;P1;durP2;ratioP2;P2;SDS_P1;SDS_P2;PMS_P1;PMS_P2;Temp;Humidity;BMP_temperature;BMP_pressure;BME280_temperature;BME280_humidity;BME280_pressure;Samples;Min_cycle;Max_cycle;Signal;HPM_P1;HPM_P2
2022/03/29 00:00:38;;;;;;;31.98;18.67;;;;;;;;;;5092471;28;20039;-59
2022/03/29 00:03:08;;;;;;;37.20;18.95;;;;;;;;;;5091734;28;20040;-59
2022/03/29 00:05:34;;;;;;;37.77;19.63;;;;;;;;;;5091441;28;20028;-59
2022/03/29 00:08:00;;;;;;;37.40;19.60;;;;;;;;;;5092167;28;20040;-59
2022/03/29 00:10:25;;;;;;;37.25;17.63;;;;;;;;;;5091770;28;20123;-59
2022/03/29 00:12:53;;;;;;;34.17;18.35;;;;;;;;;;5092584;28;20039;-59
2022/03/29 00:15:21;;;;;;;32.55;18.30;;;;;;;;;;5092209;28;20363;-59
2022/03/29 00:17:47;;;;;;;34.03;17.70;;;;;;;;;;5092270;28;20398;-59
2022/03/29 00:20:13;;;;;;;35.22;18.08;;;;;;;;;;5092146;28;20028;-59
2022/03/29 00:22:39;;;;;;;34.70;18.92;;;;;;;;;;5092191;28;20077;-59
2022/03/29 00:25:05;;;;;;;41.67;21.20;;;;;;;;;;5073489;28;20042;-59
2022/03/29 00:27:30;;;;;;;45.00;20.67;;;;;;;;;;5091798;28;20497;-59
2022/03/29 00:29:56;;;;;;;36.15;20.33;;;;;;;;;;5091968;28;20032;-59
2022/03/29 00:32:21;;;;;;;39.55;19.75;;;;;;;;;;5091589;28;20043;-59
2022/03/29 00:34:48;;;;;;;36.70;20.70;;;;;;;;;;5091699;28;20494;-59
2022/03/29 00:37:13;;;;;;;45.80;22.85;;;;;;;;;;5091744;28;20131;-59
2022/03/29 00:39:39;;;;;;;54.58;25.00;;;;;;;;;;5091659;28;20173;-59
2022/03/29 00:42:04;;;;;;;42.63;22.02;;;;;;;;;;5091613;28;20055;-59
2022/03/29 00:44:31;;;;;;;37.70;20.35;;;;;;;;;;5091473;28;20087;-59
2022/03/29 00:46:58;;;;;;;33.25;18.73;;;;;;;;;;5091789;28;20028;-59
2022/03/29 00:49:23;;;;;;;38.20;20.25;;;;;;;;;;5091079;28;20482;-59
2022/03/29 00:51:49;;;;;;;37.63;20.27;;;;;;;;;;5090747;28;20047;-59
2022/03/29 00:54:15;;;;;;;34.65;18.58;;;;;;;;;;5091065;28;20500;-59
2022/03/29 00:56:40;;;;;;;43.50;21.52;;;;;;;;;;5091095;28;20131;-59
2022/03/29 00:59:05;;;;;;;30.83;17.42;;;;;;;;;;5090987;28;20028;-59
2022/03/29 01:01:31;;;;;;;30.05;16.83;;;;;;;;;;5090965;28;20070;-59
2022/03/29 01:03:57;;;;;;;37.00;18.45;;;;;;;;;;5072293;28;20089;-59
2022/03/29 01:06:26;;;;;;;38.47;19.38;;;;;;;;;;5090952;28;20142;-59
2022/03/29 01:08:51;;;;;;;39.85;20.35;;;;;;;;;;5091451;28;20071;-59
2022/03/29 01:11:17;;;;;;;39.40;20.58;;;;;;;;;;5091505;28;20077;-60
2022/03/29 01:13:43;;;;;;;33.15;19.23;;;;;;;;;;5091257;28;20032;-60
2022/03/29 01:18:55;;;;;;;37.50;19.38;;;;;;;;;;5091162;28;20055;-59
2022/03/29 01:21:22;;;;;;;40.35;20.33;;;;;;;;;;5055957;28;20036;-59
2022/03/29 01:23:48;;;;;;;35.38;19.23;;;;;;;;;;5090208;28;20035;-59
2022/03/29 01:26:16;;;;;;;39.90;18.35;;;;;;;;;;5090557;28;20027;-59
2022/03/29 01:28:42;;;;;;;39.53;20.08;;;;;;;;;;5072488;28;20043;-59
2022/03/29 01:31:08;;;;;;;33.72;17.70;;;;;;;;;;5090656;28;20059;-59
2022/03/29 01:33:33;;;;;;;37.03;18.95;;;;;;;;;;5090032;28;20036;-59
2022/03/29 01:35:59;;;;;;;34.40;18.58;;;;;;;;;;5071729;28;20123;-60
2022/03/29 01:38:25;;;;;;;33.28;17.95;;;;;;;;;;5090304;28;20048;-60
2022/03/29 01:40:50;;;;;;;34.15;18.42;;;;;;;;;;5090184;28;20031;-60
2022/03/29 01:43:16;;;;;;;35.17;18.55;;;;;;;;;;5090478;28;20537;-60
2022/03/29 01:45:41;;;;;;;36.10;18.85;;;;;;;;;;5090410;28;20454;-59
2022/03/29 01:48:07;;;;;;;29.00;17.42;;;;;;;;;;5090523;28;20036;-59
2022/03/29 01:50:32;;;;;;;28.80;17.80;;;;;;;;;;5071943;28;20037;-59
2022/03/29 01:52:58;;;;;;;30.48;16.55;;;;;;;;;;5090349;28;20531;-66
2022/03/29 01:55:23;;;;;;;31.77;17.67;;;;;;;;;;5090407;28;20476;-65
2022/03/29 01:57:49;;;;;;;40.28;21.10;;;;;;;;;;5090130;28;20818;-65
2022/03/29 02:00:31;;;;;;;43.53;22.73;;;;;;;;;;5090117;28;20024;-66
2022/03/29 02:02:57;;;;;;;45.13;23.67;;;;;;;;;;5089609;28;20047;-65
2022/03/29 02:05:23;;;;;;;39.38;21.10;;;;;;;;;;5090575;28;20024;-66
2022/03/29 02:08:08;;;;;;;42.75;22.92;;;;;;;;;;5090350;28;20505;-68
2022/03/29 02:11:17;;;;;;;38.95;20.33;;;;;;;;;;5057559;28;20036;-68
2022/03/29 02:14:17;;;;;;;36.22;19.40;;;;;;;;;;5071110;28;20353;-68
2022/03/29 02:16:57;;;;;;;31.42;18.63;;;;;;;;;;5056173;28;20040;-67
2022/03/29 02:19:23;;;;;;;30.85;18.45;;;;;;;;;;5089477;28;20471;-66
2022/03/29 02:21:48;;;;;;;32.95;18.63;;;;;;;;;;5089211;28;20040;-65
2022/03/29 02:24:13;;;;;;;44.38;26.80;;;;;;;;;;5089082;28;20043;-65
2022/03/29 02:26:39;;;;;;;28.90;17.88;;;;;;;;;;5090191;28;20116;-66
2022/03/29 02:29:04;;;;;;;32.90;17.38;;;;;;;;;;5073713;28;20131;-65
2022/03/29 02:31:29;;;;;;;34.45;22.15;;;;;;;;;;5093917;28;20036;-65
2022/03/29 02:33:55;;;;;;;41.08;27.13;;;;;;;;;;5093981;28;20107;-65
2022/03/29 02:36:20;;;;;;;39.08;25.38;;;;;;;;;;5093917;28;20373;-65
2022/03/29 02:38:46;;;;;;;32.35;20.58;;;;;;;;;;5094167;28;20039;-65
2022/03/29 02:41:11;;;;;;;36.08;24.73;;;;;;;;;;5093796;28;20036;-64
2022/03/29 02:43:37;;;;;;;59.47;35.40;;;;;;;;;;5093947;28;20054;-65
2022/03/29 02:46:03;;;;;;;75.47;39.03;;;;;;;;;;5094005;28;20036;-65
2022/03/29 02:48:30;;;;;;;35.25;21.75;;;;;;;;;;5075595;28;20040;-65
2022/03/29 02:50:56;;;;;;;34.25;18.73;;;;;;;;;;5093777;28;20093;-65
2022/03/29 02:53:22;;;;;;;31.35;18.42;;;;;;;;;;5093858;28;20603;-65
2022/03/29 02:55:47;;;;;;;31.17;19.25;;;;;;;;;;5058769;28;20040;-65
2022/03/29 02:58:13;;;;;;;32.72;18.38;;;;;;;;;;5093699;28;20047;-65
2022/03/29 03:00:38;;;;;;;32.55;18.40;;;;;;;;;;5090134;28;20523;-65
2022/03/29 03:03:04;;;;;;;57.80;29.52;;;;;;;;;;5064004;28;20059;-65
2022/03/29 03:05:33;;;;;;;40.72;24.83;;;;;;;;;;5065667;28;20358;-65
2022/03/29 03:07:58;;;;;;;91.22;53.28;;;;;;;;;;5082909;28;20098;-65
2022/03/29 03:10:25;;;;;;;117.90;59.95;;;;;;;;;;5081705;28;20667;-65
2022/03/29 03:12:50;;;;;;;38.08;21.30;;;;;;;;;;5081932;28;20162;-66
2022/03/29 03:15:18;;;;;;;27.70;17.05;;;;;;;;;;5083115;28;20107;-65
2022/03/29 03:17:44;;;;;;;75.63;38.47;;;;;;;;;;5083349;28;20036;-66
2022/03/29 03:20:11;;;;;;;29.55;17.98;;;;;;;;;;5081540;28;20206;-66
2022/03/29 03:22:37;;;;;;;32.50;18.65;;;;;;;;;;5083032;28;20043;-66
2022/03/29 03:25:02;;;;;;;33.58;18.95;;;;;;;;;;5082837;28;20040;-65
2022/03/29 03:27:29;;;;;;;32.67;19.40;;;;;;;;;;5081657;28;20052;-64
2022/03/29 03:29:54;;;;;;;32.92;19.23;;;;;;;;;;5083511;28;20020;-64
2022/03/29 03:32:20;;;;;;;30.15;17.17;;;;;;;;;;5064085;28;20410;-65
2022/03/29 03:34:45;;;;;;;26.30;16.77;;;;;;;;;;5081748;28;20067;-66
2022/03/29 03:37:11;;;;;;;27.38;18.15;;;;;;;;;;5083291;28;20218;-65
2022/03/29 03:39:37;;;;;;;28.27;19.20;;;;;;;;;;5081037;28;20461;-65
2022/03/29 03:42:07;;;;;;;28.80;17.23;;;;;;;;;;5081765;28;20039;-65
2022/03/29 03:44:32;;;;;;;28.37;17.87;;;;;;;;;;5075026;28;20036;-60
2022/03/29 03:47:00;;;;;;;30.25;17.02;;;;;;;;;;5054334;28;20455;-61
2022/03/29 03:49:27;;;;;;;31.63;20.00;;;;;;;;;;5072693;28;20439;-61
2022/03/29 03:51:53;;;;;;;32.03;19.52;;;;;;;;;;5072344;28;20051;-61
2022/03/29 03:54:18;;;;;;;35.53;22.98;;;;;;;;;;5072228;28;20044;-61
2022/03/29 03:56:44;;;;;;;33.13;20.60;;;;;;;;;;5072208;28;20043;-61
2022/03/29 03:59:09;;;;;;;32.28;19.80;;;;;;;;;;5072205;28;20036;-61
2022/03/29 04:01:35;;;;;;;35.53;21.77;;;;;;;;;;5072689;28;20143;-61
2022/03/29 04:04:00;;;;;;;32.72;21.92;;;;;;;;;;5057526;28;20040;-61
2022/03/29 04:06:25;;;;;;;27.02;19.55;;;;;;;;;;5075780;28;20059;-61
2022/03/29 04:08:51;;;;;;;29.83;19.35;;;;;;;;;;5075704;28;20024;-61
2022/03/29 04:11:16;;;;;;;31.85;21.60;;;;;;;;;;5075748;28;20394;-61
2022/03/29 04:13:43;;;;;;;33.15;20.73;;;;;;;;;;5057710;28;20032;-61
2022/03/29 04:16:09;;;;;;;31.00;19.98;;;;;;;;;;5075235;28;20029;-61
2022/03/29 04:18:34;;;;;;;32.65;20.17;;;;;;;;;;5075757;28;20024;-61
2022/03/29 04:21:01;;;;;;;35.08;19.80;;;;;;;;;;5075382;28;20524;-61
2022/03/29 04:23:27;;;;;;;30.63;16.52;;;;;;;;;;5075559;28;20028;-61
2022/03/29 04:25:53;;;;;;;27.83;17.27;;;;;;;;;;5075635;28;20068;-61
2022/03/29 04:28:19;;;;;;;30.20;19.05;;;;;;;;;;5074487;28;20067;-61
2022/03/29 04:30:45;;;;;;;39.50;21.60;;;;;;;;;;5074909;28;20047;-61
2022/03/29 04:33:11;;;;;;;37.20;21.67;;;;;;;;;;5075025;28;20020;-61
2022/03/29 04:35:36;;;;;;;41.45;22.55;;;;;;;;;;5074890;28;20036;-61
2022/03/29 04:38:02;;;;;;;45.60;23.48;;;;;;;;;;5074355;28;20028;-61
2022/03/29 04:40:27;;;;;;;39.80;22.75;;;;;;;;;;5074794;28;20398;-61
2022/03/29 04:42:53;;;;;;;38.63;21.20;;;;;;;;;;5074719;28;20052;-61
2022/03/29 04:45:19;;;;;;;58.50;33.85;;;;;;;;;;5074143;28;20528;-61
2022/03/29 04:47:45;;;;;;;47.28;27.05;;;;;;;;;;5074530;28;20029;-61
2022/03/29 04:50:11;;;;;;;46.95;25.73;;;;;;;;;;5074425;28;20059;-61
2022/03/29 04:52:39;;;;;;;43.10;23.58;;;;;;;;;;5073379;28;20025;-61
2022/03/29 04:55:06;;;;;;;44.42;23.92;;;;;;;;;;5074526;28;20061;-61
2022/03/29 04:57:32;;;;;;;40.72;22.25;;;;;;;;;;5074294;28;20029;-60
2022/03/29 04:59:58;;;;;;;35.20;19.85;;;;;;;;;;5074435;28;20436;-61
2022/03/29 05:02:24;;;;;;;40.00;21.40;;;;;;;;;;5074874;28;20031;-61
2022/03/29 05:04:51;;;;;;;40.60;22.42;;;;;;;;;;5074581;28;20076;-61
2022/03/29 05:07:17;;;;;;;41.97;22.25;;;;;;;;;;5074158;28;20056;-61
2022/03/29 05:09:42;;;;;;;37.08;20.48;;;;;;;;;;5074256;28;20029;-61
2022/03/29 05:12:08;;;;;;;39.17;20.75;;;;;;;;;;5073879;28;20486;-61
2022/03/29 05:14:34;;;;;;;35.38;20.25;;;;;;;;;;5074194;28;20072;-61
2022/03/29 05:17:00;;;;;;;42.50;22.90;;;;;;;;;;5074105;28;20040;-61
2022/03/29 05:19:26;;;;;;;35.53;22.00;;;;;;;;;;5056567;28;20040;-61
2022/03/29 05:21:51;;;;;;;43.78;22.70;;;;;;;;;;5074074;28;20064;-61
2022/03/29 05:24:17;;;;;;;41.45;22.90;;;;;;;;;;5073968;28;20045;-61
2022/03/29 05:26:42;;;;;;;39.72;21.73;;;;;;;;;;5073919;28;20021;-61
2022/03/29 05:29:09;;;;;;;37.85;22.08;;;;;;;;;;5073718;28;20370;-61
2022/03/29 05:31:34;;;;;;;40.42;22.10;;;;;;;;;;5073703;28;20017;-61
2022/03/29 05:34:00;;;;;;;39.33;22.23;;;;;;;;;;5073721;28;20206;-61
2022/03/29 05:36:25;;;;;;;34.55;21.05;;;;;;;;;;5073945;28;20032;-61
2022/03/29 05:38:52;;;;;;;41.15;22.20;;;;;;;;;;5074038;28;20043;-60
2022/03/29 05:41:20;;;;;;;35.97;20.80;;;;;;;;;;5073385;28;20025;-61
2022/03/29 05:43:47;;;;;;;36.00;21.30;;;;;;;;;;5056115;28;20048;-61
2022/03/29 05:48:57;;;;;;;38.85;22.38;;;;;;;;;;5073837;28;20064;-61
2022/03/29 05:51:24;;;;;;;40.70;22.85;;;;;;;;;;5073748;28;20101;-60
2022/03/29 05:53:51;;;;;;;45.53;25.38;;;;;;;;;;5073626;28;20385;-61
2022/03/29 05:56:17;;;;;;;47.90;27.33;;;;;;;;;;5073677;28;20031;-61
2022/03/29 05:58:42;;;;;;;52.88;29.90;;;;;;;;;;5073423;28;20036;-61
2022/03/29 06:01:08;;;;;;;55.53;31.90;;;;;;;;;;5073507;28;20145;-61
2022/03/29 06:03:34;;;;;;;47.50;30.15;;;;;;;;;;5073088;28;20028;-61
2022/03/29 06:05:59;;;;;;;48.22;28.73;;;;;;;;;;5073028;28;20017;-61
2022/03/29 06:08:24;;;;;;;46.92;29.02;;;;;;;;;;5073307;28;20040;-61
2022/03/29 06:10:50;;;;;;;48.33;28.75;;;;;;;;;;5073121;28;20025;-61
2022/03/29 06:13:16;;;;;;;68.75;37.75;;;;;;;;;;5073208;28;20032;-61
2022/03/29 06:15:41;;;;;;;57.03;32.22;;;;;;;;;;5073220;28;20387;-61
2022/03/29 06:18:07;;;;;;;39.65;24.98;;;;;;;;;;5073212;28;20044;-61
2022/03/29 06:20:32;;;;;;;44.33;24.58;;;;;;;;;;5070393;28;20036;-61
2022/03/29 06:22:58;;;;;;;41.00;23.85;;;;;;;;;;5073136;28;20127;-60
2022/03/29 06:25:24;;;;;;;43.17;23.55;;;;;;;;;;5073224;28;20033;-61
2022/03/29 06:27:49;;;;;;;38.10;21.63;;;;;;;;;;5073323;28;20033;-61
2022/03/29 06:30:15;;;;;;;42.17;22.90;;;;;;;;;;5073421;28;20027;-61
2022/03/29 06:32:50;;;;;;;34.75;20.80;;;;;;;;;;5072936;28;20486;-61
2022/03/29 06:35:21;;;;;;;34.92;21.65;;;;;;;;;;5073133;28;20033;-61
2022/03/29 06:37:48;;;;;;;38.88;22.55;;;;;;;;;;5073034;28;20040;-61
2022/03/29 06:40:14;;;;;;;37.10;22.40;;;;;;;;;;5055221;28;20032;-61
2022/03/29 06:42:39;;;;;;;38.35;23.13;;;;;;;;;;5072707;28;20435;-61
2022/03/29 06:45:08;;;;;;;38.58;23.05;;;;;;;;;;5073122;28;20052;-61
2022/03/29 06:47:33;;;;;;;39.42;24.23;;;;;;;;;;5073179;28;20102;-61
2022/03/29 06:49:59;;;;;;;48.20;26.70;;;;;;;;;;5073028;28;20479;-61
2022/03/29 06:52:34;;;;;;;49.63;28.05;;;;;;;;;;5073220;28;20044;-61
2022/03/29 06:55:02;;;;;;;54.30;27.05;;;;;;;;;;5073090;28;20032;-61
2022/03/29 06:57:28;;;;;;;43.67;25.45;;;;;;;;;;5072985;28;20025;-61
2022/03/29 06:59:53;;;;;;;35.22;21.33;;;;;;;;;;5054972;28;20075;-61
2022/03/29 07:02:19;;;;;;;32.30;20.55;;;;;;;;;;5072496;28;20541;-61
2022/03/29 07:04:45;;;;;;;20.15;13.25;;;;;;;;;;5071687;28;20045;-61
2022/03/29 07:07:10;;;;;;;24.67;14.52;;;;;;;;;;5072348;28;20032;-61
2022/03/29 07:12:21;;;;;;;19.80;11.23;;;;;;;;;;5071771;28;20040;-61
2022/03/29 07:14:47;;;;;;;18.60;11.40;;;;;;;;;;5073007;28;20082;-61
2022/03/29 07:17:15;;;;;;;20.27;12.90;;;;;;;;;;5076576;28;20036;-61
2022/03/29 07:19:41;;;;;;;20.05;12.48;;;;;;;;;;5076847;28;20039;-61
2022/03/29 07:22:07;;;;;;;19.02;13.13;;;;;;;;;;5076419;28;20036;-61
2022/03/29 07:24:32;;;;;;;20.67;12.98;;;;;;;;;;5058345;28;20029;-61
2022/03/29 07:26:58;;;;;;;19.63;12.77;;;;;;;;;;5076396;28;20471;-61
2022/03/29 07:29:25;;;;;;;19.17;11.52;;;;;;;;;;5076517;28;20372;-61
2022/03/29 07:31:51;;;;;;;16.75;11.35;;;;;;;;;;5076136;28;20037;-60
2022/03/29 07:34:16;;;;;;;16.77;10.48;;;;;;;;;;5076241;28;20035;-61
2022/03/29 07:36:43;;;;;;;16.00;10.52;;;;;;;;;;5076163;28;20087;-61
2022/03/29 07:39:08;;;;;;;15.27;9.88;;;;;;;;;;5076266;28;20036;-61
2022/03/29 07:41:34;;;;;;;15.80;10.52;;;;;;;;;;5075797;28;20048;-61
2022/03/29 07:44:00;;;;;;;14.02;9.63;;;;;;;;;;5076063;28;20140;-61
2022/03/29 07:46:25;;;;;;;17.38;10.32;;;;;;;;;;5076300;28;20090;-61
2022/03/29 07:48:51;;;;;;;17.50;10.32;;;;;;;;;;5075927;28;20463;-60
2022/03/29 07:51:17;;;;;;;15.60;10.98;;;;;;;;;;5076019;28;20086;-60
2022/03/29 07:53:42;;;;;;;19.00;11.05;;;;;;;;;;5075741;28;20028;-61
2022/03/29 07:56:08;;;;;;;13.55;9.75;;;;;;;;;;5075179;28;20031;-61
2022/03/29 07:58:33;;;;;;;12.27;9.13;;;;;;;;;;5075511;28;20139;-61
2022/03/29 08:01:00;;;;;;;14.55;10.43;;;;;;;;;;5075511;28;20029;-61
2022/03/29 08:03:32;;;;;;;14.18;10.50;;;;;;;;;;5075485;28;20048;-61
2022/03/29 08:05:58;;;;;;;16.85;9.63;;;;;;;;;;5075668;28;20041;-61
2022/03/29 08:08:24;;;;;;;13.98;9.60;;;;;;;;;;5075645;28;20043;-60
2022/03/29 08:10:50;;;;;;;15.15;10.57;;;;;;;;;;5075433;28;20036;-60
2022/03/29 08:13:15;;;;;;;14.95;9.50;;;;;;;;;;5075314;28;20036;-60
2022/03/29 08:15:43;;;;;;;16.95;10.27;;;;;;;;;;5075511;28;20068;-60
2022/03/29 08:18:08;;;;;;;15.50;10.23;;;;;;;;;;5057318;28;20048;-61
2022/03/29 08:20:34;;;;;;;13.73;9.20;;;;;;;;;;5075380;28;20044;-60
2022/03/29 08:23:00;;;;;;;12.07;8.35;;;;;;;;;;5075040;28;20017;-60
2022/03/29 08:25:29;;;;;;;12.40;8.90;;;;;;;;;;5074990;28;20530;-60
2022/03/29 08:27:56;;;;;;;11.77;8.98;;;;;;;;;;5075128;28;20029;-61
2022/03/29 08:30:24;;;;;;;11.45;7.75;;;;;;;;;;5075298;28;20032;-60
2022/03/29 08:32:50;;;;;;;12.38;8.63;;;;;;;;;;5075200;28;20025;-60
2022/03/29 08:35:15;;;;;;;12.45;9.57;;;;;;;;;;5057059;28;20043;-60
2022/03/29 08:37:41;;;;;;;13.82;9.32;;;;;;;;;;5074971;28;20436;-60
2022/03/29 08:40:11;;;;;;;12.93;9.38;;;;;;;;;;5074938;28;20432;-60
2022/03/29 08:42:37;;;;;;;8.40;7.05;;;;;;;;;;5074375;28;20048;-60
2022/03/29 08:45:13;;;;;;;9.70;6.18;;;;;;;;;;5074640;28;20040;-60
2022/03/29 08:47:41;;;;;;;14.27;9.20;;;;;;;;;;5074685;28;20037;-60
2022/03/29 08:50:07;;;;;;;8.07;6.78;;;;;;;;;;5057312;28;20383;-60
2022/03/29 08:52:33;;;;;;;12.13;7.75;;;;;;;;;;5074888;28;20033;-60
2022/03/29 08:54:59;;;;;;;11.50;7.03;;;;;;;;;;5074660;28;20383;-61
2022/03/29 08:57:25;;;;;;;8.95;7.15;;;;;;;;;;5074395;28;20043;-60
2022/03/29 08:59:50;;;;;;;11.57;7.97;;;;;;;;;;5074362;28;20043;-61
2022/03/29 09:02:16;;;;;;;9.85;8.40;;;;;;;;;;5074478;28;20087;-61
2022/03/29 09:04:43;;;;;;;10.20;7.60;;;;;;;;;;5074372;28;20063;-61
2022/03/29 09:07:08;;;;;;;11.18;7.50;;;;;;;;;;5074418;28;20047;-61
2022/03/29 09:09:37;;;;;;;6.78;5.95;;;;;;;;;;5074447;28;20103;-61
2022/03/29 09:12:29;;;;;;;20.73;10.20;;;;;;;;;;5074354;28;20136;-61
2022/03/29 09:14:58;;;;;;;9.15;6.60;;;;;;;;;;5069552;28;20037;-61
2022/03/29 09:17:24;;;;;;;7.25;4.55;;;;;;;;;;5056682;28;20040;-61
2022/03/29 09:19:51;;;;;;;6.35;5.32;;;;;;;;;;5074293;28;20047;-61
2022/03/29 09:22:35;;;;;;;3.92;3.10;;;;;;;;;;5074000;28;20127;-61
2022/03/29 09:25:01;;;;;;;6.65;5.90;;;;;;;;;;5074132;28;20046;-60
2022/03/29 09:27:26;;;;;;;6.25;4.60;;;;;;;;;;5056220;28;20028;-61
2022/03/29 09:30:12;;;;;;;10.02;6.88;;;;;;;;;;5073992;28;20040;-61
2022/03/29 09:32:56;;;;;;;5.90;5.18;;;;;;;;;;5073852;28;20056;-61
2022/03/29 09:35:22;;;;;;;11.35;7.97;;;;;;;;;;5073379;28;20116;-60
2022/03/29 09:37:48;;;;;;;13.95;9.23;;;;;;;;;;5072795;28;20111;-61
2022/03/29 09:40:14;;;;;;;10.88;7.22;;;;;;;;;;5073176;28;20086;-61
2022/03/29 09:43:05;;;;;;;9.07;5.72;;;;;;;;;;5069606;28;20072;-61
2022/03/29 09:45:40;;;;;;;8.77;6.28;;;;;;;;;;5053865;28;20040;-65
2022/03/29 09:48:24;;;;;;;5.55;5.00;;;;;;;;;;5073859;28;20418;-61
2022/03/29 09:50:54;;;;;;;7.00;5.45;;;;;;;;;;5073778;28;20467;-61
2022/03/29 09:53:43;;;;;;;8.32;7.40;;;;;;;;;;5073497;28;20033;-60
2022/03/29 09:56:12;;;;;;;6.65;5.80;;;;;;;;;;5060564;28;20040;-61
2022/03/29 09:58:38;;;;;;;6.07;4.78;;;;;;;;;;5073442;28;20035;-61
2022/03/29 10:01:05;;;;;;;4.95;4.45;;;;;;;;;;5073515;28;20463;-61
2022/03/29 10:03:31;;;;;;;8.20;6.50;;;;;;;;;;5073550;28;20043;-61
2022/03/29 10:06:01;;;;;;;10.70;8.20;;;;;;;;;;5073569;28;20434;-61
2022/03/29 10:11:13;;;;;;;7.35;6.43;;;;;;;;;;5073463;28;20274;-61
2022/03/29 10:13:38;;;;;;;3.47;3.17;;;;;;;;;;5073379;28;20036;-61
2022/03/29 10:16:05;;;;;;;7.55;5.70;;;;;;;;;;5073098;28;20067;-60
2022/03/29 10:18:30;;;;;;;7.20;5.68;;;;;;;;;;5073417;28;20344;-60
2022/03/29 10:20:57;;;;;;;5.47;4.82;;;;;;;;;;5073558;28;20150;-60
2022/03/29 10:23:24;;;;;;;6.28;5.50;;;;;;;;;;5073061;28;20021;-61
2022/03/29 10:25:51;;;;;;;6.90;5.07;;;;;;;;;;5073406;28;20037;-60
2022/03/29 10:28:16;;;;;;;5.00;4.28;;;;;;;;;;5073555;28;20032;-61
2022/03/29 10:30:42;;;;;;;6.07;4.78;;;;;;;;;;5073517;28;20706;-60
2022/03/29 10:33:15;;;;;;;5.72;3.78;;;;;;;;;;5073129;28;20031;-61
2022/03/29 10:36:17;;;;;;;3.97;3.05;;;;;;;;;;5073189;28;20032;-60
2022/03/29 10:38:46;;;;;;;8.02;6.25;;;;;;;;;;5073236;28;20037;-63
2022/03/29 10:41:26;;;;;;;7.70;5.47;;;;;;;;;;5073545;28;20033;-61
2022/03/29 10:43:53;;;;;;;5.97;4.43;;;;;;;;;;5093170;28;20034;-61
2022/03/29 10:46:32;;;;;;;5.50;3.83;;;;;;;;;;5093090;28;20040;-60
2022/03/29 10:49:22;;;;;;;6.05;4.97;;;;;;;;;;5093250;28;20032;-60
2022/03/29 10:51:48;;;;;;;3.60;3.05;;;;;;;;;;5096766;28;20474;-60
2022/03/29 10:54:24;;;;;;;9.23;7.00;;;;;;;;;;5097266;28;20496;-61
2022/03/29 10:57:14;;;;;;;2.75;2.55;;;;;;;;;;5079175;28;20036;-60
2022/03/29 10:59:40;;;;;;;4.53;3.30;;;;;;;;;;5084431;28;20052;-60
2022/03/29 11:02:14;;;;;;;8.73;6.60;;;;;;;;;;5097387;28;20043;-60
2022/03/29 11:04:58;;;;;;;3.92;3.05;;;;;;;;;;5097033;28;20039;-60
2022/03/29 11:07:24;;;;;;;9.38;6.47;;;;;;;;;;5090487;28;20033;-60
2022/03/29 11:10:06;;;;;;;8.05;6.78;;;;;;;;;;5085042;28;20069;-61
2022/03/29 11:12:37;;;;;;;7.10;4.28;;;;;;;;;;5082991;28;20024;-61
2022/03/29 11:15:22;;;;;;;6.15;4.45;;;;;;;;;;5085694;28;20039;-61
2022/03/29 11:17:48;;;;;;;13.93;12.52;;;;;;;;;;5083752;28;20029;-61
2022/03/29 11:20:30;;;;;;;7.40;6.32;;;;;;;;;;5076630;28;20031;-61
2022/03/29 11:22:57;;;;;;;6.97;6.28;;;;;;;;;;5076470;28;20056;-61
2022/03/29 11:25:23;;;;;;;10.15;6.75;;;;;;;;;;5076409;28;20505;-60
2022/03/29 11:27:48;;;;;;;7.82;6.93;;;;;;;;;;5069409;28;20041;-60
2022/03/29 11:30:14;;;;;;;7.30;6.47;;;;;;;;;;5056493;28;20029;-60
2022/03/29 11:32:40;;;;;;;7.45;6.38;;;;;;;;;;5056019;28;20039;-60
2022/03/29 11:35:11;;;;;;;5.38;4.35;;;;;;;;;;5056293;28;20445;-60
2022/03/29 11:37:40;;;;;;;4.60;2.47;;;;;;;;;;5056306;28;20033;-60
2022/03/29 11:40:09;;;;;;;5.32;4.80;;;;;;;;;;5056190;28;20041;-60
2022/03/29 11:42:49;;;;;;;6.38;5.72;;;;;;;;;;5055736;28;20066;-61
2022/03/29 11:45:18;;;;;;;9.43;7.05;;;;;;;;;;5038462;28;20455;-60
2022/03/29 11:47:53;;;;;;;10.48;8.13;;;;;;;;;;5055768;28;20037;-60
2022/03/29 11:50:28;;;;;;;9.25;7.70;;;;;;;;;;5055692;28;20041;-60
2022/03/29 11:52:53;;;;;;;8.10;5.65;;;;;;;;;;5055789;28;20040;-60
2022/03/29 11:55:19;;;;;;;3.72;3.38;;;;;;;;;;5055928;28;20028;-60
2022/03/29 11:57:44;;;;;;;5.45;4.15;;;;;;;;;;5055734;28;20383;-60
2022/03/29 12:00:23;;;;;;;11.05;7.03;;;;;;;;;;5055703;28;20017;-60
2022/03/29 12:02:49;;;;;;;3.90;3.47;;;;;;;;;;5055769;28;20395;-60
2022/03/29 12:05:24;;;;;;;4.05;2.40;;;;;;;;;;5055883;28;20086;-60
2022/03/29 12:08:02;;;;;;;1.02;0.90;;;;;;;;;;5055730;28;20061;-60
2022/03/29 12:10:29;;;;;;;1.85;1.30;;;;;;;;;;5055979;28;20033;-61
2022/03/29 12:12:59;;;;;;;8.02;6.00;;;;;;;;;;5055552;28;20426;-66
2022/03/29 12:15:28;;;;;;;6.88;4.60;;;;;;;;;;5056348;28;20033;-61
2022/03/29 12:20:40;;;;;;;2.95;2.60;;;;;;;;;;5075469;28;20032;-60
2022/03/29 12:23:22;;;;;;;5.80;5.05;;;;;;;;;;5075270;28;20134;-61
2022/03/29 12:25:48;;;;;;;5.15;3.83;;;;;;;;;;5075514;28;20060;-61
2022/03/29 12:28:14;;;;;;;13.23;8.02;;;;;;;;;;5074739;28;20071;-60
2022/03/29 12:30:40;;;;;;;12.07;8.18;;;;;;;;;;5075459;28;20061;-61
2022/03/29 12:33:06;;;;;;;3.70;3.35;;;;;;;;;;5075125;28;20025;-60
2022/03/29 12:35:33;;;;;;;11.40;7.78;;;;;;;;;;5075116;28;20471;-60
2022/03/29 12:38:05;;;;;;;3.40;3.08;;;;;;;;;;5075276;28;20028;-60
2022/03/29 12:40:32;;;;;;;8.95;6.35;;;;;;;;;;5075048;28;20044;-60
2022/03/29 12:43:04;;;;;;;8.68;5.88;;;;;;;;;;5074881;28;20043;-61
2022/03/29 12:45:30;;;;;;;8.10;6.32;;;;;;;;;;5074743;28;20047;-60
2022/03/29 12:47:56;;;;;;;11.25;7.72;;;;;;;;;;5074702;28;20090;-60
2022/03/29 12:50:22;;;;;;;6.78;4.57;;;;;;;;;;5074814;28;20037;-60
2022/03/29 12:52:47;;;;;;;7.60;6.35;;;;;;;;;;5074576;28;20536;-60
2022/03/29 12:55:14;;;;;;;8.52;5.72;;;;;;;;;;5074921;28;20405;-60
2022/03/29 12:57:41;;;;;;;10.13;6.97;;;;;;;;;;5074750;28;20031;-60
2022/03/29 13:00:09;;;;;;;11.40;7.47;;;;;;;;;;5056690;28;20044;-60
2022/03/29 13:02:41;;;;;;;9.90;7.03;;;;;;;;;;5074632;28;20064;-60
2022/03/29 13:05:07;;;;;;;5.78;4.63;;;;;;;;;;5056548;28;20067;-60
2022/03/29 13:07:39;;;;;;;6.93;5.85;;;;;;;;;;5074466;28;20047;-60
2022/03/29 13:10:13;;;;;;;5.65;4.75;;;;;;;;;;5074467;28;20199;-61
2022/03/29 13:12:59;;;;;;;2.22;2.08;;;;;;;;;;5073574;28;20033;-61
2022/03/29 13:15:44;;;;;;;5.50;4.18;;;;;;;;;;5056339;28;20438;-60
2022/03/29 13:18:29;;;;;;;4.95;4.15;;;;;;;;;;5074145;28;20035;-61
2022/03/29 13:21:13;;;;;;;5.35;4.70;;;;;;;;;;5074187;28;20036;-61
2022/03/29 13:23:39;;;;;;;5.05;4.30;;;;;;;;;;5074753;28;20036;-61
2022/03/29 13:26:09;;;;;;;4.68;3.78;;;;;;;;;;5074348;28;20038;-61
2022/03/29 13:28:35;;;;;;;5.95;5.25;;;;;;;;;;5074196;28;20035;-60
2022/03/29 13:31:02;;;;;;;5.28;4.15;;;;;;;;;;5056316;28;20024;-61
2022/03/29 13:33:28;;;;;;;5.38;4.88;;;;;;;;;;5073849;28;20119;-61
2022/03/29 13:35:53;;;;;;;3.42;3.10;;;;;;;;;;5073988;28;20447;-60
2022/03/29 13:38:20;;;;;;;6.78;3.85;;;;;;;;;;5073689;28;20430;-60
2022/03/29 13:40:49;;;;;;;5.82;4.80;;;;;;;;;;5076054;28;20197;-61
2022/03/29 13:43:16;;;;;;;5.73;4.53;;;;;;;;;;5073489;28;20051;-61
2022/03/29 13:45:42;;;;;;;4.60;3.38;;;;;;;;;;5073747;28;20297;-61
2022/03/29 13:48:08;;;;;;;4.13;3.72;;;;;;;;;;5073185;28;20029;-61
2022/03/29 13:50:34;;;;;;;3.95;3.22;;;;;;;;;;5073520;28;20020;-61
2022/03/29 13:53:00;;;;;;;5.88;5.00;;;;;;;;;;5056031;28;20044;-61
2022/03/29 13:55:26;;;;;;;1.40;1.30;;;;;;;;;;5073563;28;20032;-61
2022/03/29 13:57:51;;;;;;;3.17;2.65;;;;;;;;;;5055566;28;20123;-61
2022/03/29 14:00:17;;;;;;;4.07;3.50;;;;;;;;;;5073494;28;20044;-60
2022/03/29 14:02:43;;;;;;;4.50;3.90;;;;;;;;;;5073508;28;20094;-62
2022/03/29 14:05:09;;;;;;;4.18;3.55;;;;;;;;;;5055429;28;20032;-62
2022/03/29 14:07:35;;;;;;;6.10;3.97;;;;;;;;;;5073374;28;20112;-62
2022/03/29 14:10:00;;;;;;;5.70;3.70;;;;;;;;;;5055489;28;20039;-62
2022/03/29 14:12:26;;;;;;;5.47;4.07;;;;;;;;;;5073344;28;20490;-62
2022/03/29 14:14:51;;;;;;;11.27;6.53;;;;;;;;;;5073180;28;20455;-62
2022/03/29 14:17:17;;;;;;;6.47;4.82;;;;;;;;;;5073305;28;20102;-60
2022/03/29 14:19:45;;;;;;;9.43;6.00;;;;;;;;;;5055295;28;20036;-60
2022/03/29 14:22:14;;;;;;;9.75;5.22;;;;;;;;;;5053443;28;20076;-66
2022/03/29 14:24:39;;;;;;;6.32;4.32;;;;;;;;;;5052827;28;20029;-66
2022/03/29 14:27:05;;;;;;;10.60;5.97;;;;;;;;;;5053341;28;20044;-65
2022/03/29 14:29:31;;;;;;;7.47;5.75;;;;;;;;;;5053127;28;20502;-65
2022/03/29 14:31:59;;;;;;;8.70;6.10;;;;;;;;;;5035812;28;20041;-65
2022/03/29 14:34:25;;;;;;;5.15;4.18;;;;;;;;;;5035605;28;20467;-65
2022/03/29 14:36:51;;;;;;;4.03;3.63;;;;;;;;;;5053242;28;20041;-66
2022/03/29 14:39:16;;;;;;;5.90;5.03;;;;;;;;;;5053324;28;20078;-66
2022/03/29 14:41:42;;;;;;;8.10;4.15;;;;;;;;;;5052901;28;20044;-65
2022/03/29 14:44:10;;;;;;;5.85;4.55;;;;;;;;;;5053056;28;20123;-66